createdAt,value
2019-05-14T00:02:06.500Z,11.68
2019-05-14T00:04:36.761Z,11.70
2019-05-14T00:07:07.053Z,11.25
2019-05-14T00:09:37.248Z,11.90
2019-05-14T00:12:07.555Z,11.73
2019-05-14T00:14:40.358Z,11.55
2019-05-14T00:17:11.257Z,11.38
2019-05-14T00:19:41.962Z,11.63
2019-05-14T00:22:12.376Z,11.48
2019-05-14T00:24:42.632Z,11.08
2019-05-14T00:27:12.922Z,11.22
2019-05-14T00:29:43.568Z,10.48
2019-05-14T00:32:13.784Z,11.03
2019-05-14T00:34:43.990Z,11.25
2019-05-14T00:37:14.288Z,11.48
2019-05-14T00:39:44.543Z,11.50
2019-05-14T00:42:14.844Z,12.93
2019-05-14T00:44:54.390Z,11.78
2019-05-14T00:47:16.974Z,10.90
2019-05-14T00:49:47.216Z,10.80
2019-05-14T00:52:17.503Z,11.50
2019-05-14T00:54:47.775Z,10.85
2019-05-14T00:57:18.089Z,10.95
2019-05-14T00:59:48.356Z,10.95
2019-05-14T01:02:18.668Z,11.33
2019-05-14T01:04:48.925Z,11.33
2019-05-14T01:07:21.140Z,11.93
2019-05-14T01:09:52.382Z,11.55
2019-05-14T01:12:22.842Z,11.75
2019-05-14T01:15:06.702Z,12.25
2019-05-14T01:17:24.963Z,12.37
2019-05-14T01:19:55.206Z,12.07
2019-05-14T01:22:25.499Z,11.63
2019-05-14T01:24:55.703Z,10.70
2019-05-14T01:27:26.013Z,11.50
2019-05-14T01:29:56.207Z,12.03
2019-05-14T01:32:26.491Z,11.12
2019-05-14T01:34:56.753Z,10.20
2019-05-14T01:37:27.094Z,10.30
2019-05-14T01:39:57.353Z,11.30
2019-05-14T01:42:27.870Z,10.95
2019-05-14T01:44:58.130Z,10.80
2019-05-14T01:47:28.399Z,10.10
2019-05-14T01:49:58.618Z,9.53
2019-05-14T01:52:28.880Z,10.35
2019-05-14T01:54:59.175Z,10.08
2019-05-14T01:57:31.183Z,9.80
2019-05-14T02:00:02.282Z,10.18
2019-05-14T02:02:33.829Z,10.58
2019-05-14T02:05:05.463Z,9.93
2019-05-14T02:07:35.648Z,10.53
2019-05-14T02:10:11.591Z,10.28
2019-05-14T02:12:42.497Z,10.32
2019-05-14T02:15:14.175Z,10.48
2019-05-14T02:17:44.420Z,10.80
2019-05-14T02:20:14.998Z,9.93
2019-05-14T02:22:45.272Z,10.30
2019-05-14T02:25:15.759Z,9.55
2019-05-14T02:27:46.026Z,10.13
2019-05-14T02:30:19.368Z,11.12
2019-05-14T02:32:49.794Z,9.88
2019-05-14T02:35:20.413Z,10.40
2019-05-14T02:37:50.755Z,9.78
2019-05-14T02:40:21.190Z,9.90
2019-05-14T02:42:51.370Z,9.53
2019-05-14T02:45:21.815Z,10.10
2019-05-14T02:47:52.082Z,11.12
2019-05-14T02:50:22.343Z,12.98
2019-05-14T02:52:52.647Z,11.45
2019-05-14T02:55:22.893Z,9.85
2019-05-14T02:57:53.083Z,11.73
2019-05-14T03:00:23.410Z,11.15
2019-05-14T03:02:53.678Z,10.50
2019-05-14T03:05:24.007Z,10.32
2019-05-14T03:07:54.273Z,10.48
2019-05-14T03:10:24.537Z,9.90
2019-05-14T03:12:54.784Z,10.08
2019-05-14T03:15:28.891Z,11.45
2019-05-14T03:18:00.036Z,10.63
2019-05-14T03:20:29.828Z,9.80
2019-05-14T03:23:08.018Z,10.32
2019-05-14T03:25:31.982Z,10.60
2019-05-14T03:28:02.227Z,9.63
2019-05-14T03:30:33.323Z,10.25
2019-05-14T03:33:03.778Z,9.98
2019-05-14T03:35:42.031Z,10.18
2019-05-14T03:38:09.199Z,9.83
2019-05-14T03:40:40.010Z,10.48
2019-05-14T03:43:09.695Z,10.00
2019-05-14T03:45:40.032Z,10.35
2019-05-14T03:48:10.690Z,11.22
2019-05-14T03:50:41.157Z,10.68
2019-05-14T03:53:11.631Z,11.33
2019-05-14T03:55:41.971Z,11.43
2019-05-14T03:58:12.247Z,12.50
2019-05-14T04:00:51.403Z,10.70
2019-05-14T04:03:21.798Z,10.35
2019-05-14T04:05:52.569Z,10.63
2019-05-14T04:08:24.200Z,10.53
2019-05-14T04:10:58.838Z,10.72
2019-05-14T04:13:30.369Z,10.15
2019-05-14T04:16:02.875Z,10.08
2019-05-14T04:18:39.096Z,10.10
2019-05-14T04:21:09.972Z,9.63
2019-05-14T04:23:42.907Z,9.83
2019-05-14T04:26:13.651Z,9.48
2019-05-14T04:28:49.380Z,9.53
2019-05-14T04:31:20.654Z,9.23
2019-05-14T04:33:51.821Z,9.00
2019-05-14T04:36:22.071Z,9.43
2019-05-14T04:38:55.236Z,10.15
2019-05-14T04:41:24.255Z,10.35
2019-05-14T04:43:54.512Z,11.12
2019-05-14T04:46:24.765Z,10.15
2019-05-14T04:48:55.302Z,10.95
2019-05-14T04:51:25.491Z,10.93
2019-05-14T04:53:55.737Z,11.30
2019-05-14T04:56:25.993Z,10.32
2019-05-14T04:58:58.991Z,11.83
2019-05-14T05:01:29.546Z,12.37
2019-05-14T05:04:00.178Z,12.07
2019-05-14T05:06:30.469Z,11.65
2019-05-14T05:09:00.767Z,13.00
2019-05-14T05:11:32.469Z,11.22
2019-05-14T05:14:02.771Z,11.45
2019-05-14T05:16:34.695Z,10.95
2019-05-14T05:19:05.004Z,10.05
2019-05-14T05:21:35.266Z,9.93
2019-05-14T05:24:05.590Z,9.55
2019-05-14T05:26:35.771Z,9.10
2019-05-14T05:29:09.634Z,9.00
2019-05-14T05:31:38.942Z,8.68
2019-05-14T05:34:09.228Z,8.23
2019-05-14T05:36:39.432Z,8.70
2019-05-14T05:39:09.743Z,8.98
2019-05-14T05:41:41.081Z,8.53
2019-05-14T05:44:11.392Z,8.80
2019-05-14T05:46:43.327Z,9.40
2019-05-14T05:49:13.778Z,9.40
2019-05-14T05:51:43.960Z,8.08
2019-05-14T05:54:14.267Z,8.13
2019-05-14T05:56:44.450Z,8.80
2019-05-14T05:59:14.739Z,8.33
2019-05-14T06:01:46.662Z,9.03
2019-05-14T06:04:18.252Z,9.45
2019-05-14T06:06:48.646Z,8.05
2019-05-14T06:09:18.947Z,9.50
2019-05-14T06:11:49.190Z,8.55
2019-05-14T06:14:19.483Z,8.53
2019-05-14T06:16:49.670Z,8.10
2019-05-14T06:19:19.894Z,8.95
2019-05-14T06:21:50.169Z,8.60
2019-05-14T06:24:20.443Z,9.00
2019-05-14T06:26:50.734Z,8.85
2019-05-14T06:29:20.939Z,8.68
2019-05-14T06:31:51.263Z,8.95
2019-05-14T06:34:21.541Z,8.93
2019-05-14T06:36:51.882Z,9.30
2019-05-14T06:39:22.060Z,9.58
2019-05-14T06:41:52.407Z,10.08
2019-05-14T06:44:22.604Z,9.20
2019-05-14T06:46:53.044Z,9.28
2019-05-14T06:49:23.519Z,8.60
2019-05-14T06:51:53.791Z,8.70
2019-05-14T06:54:24.088Z,8.85
2019-05-14T06:56:54.275Z,9.70
2019-05-14T06:59:24.564Z,8.90
2019-05-14T07:01:54.759Z,9.60
2019-05-14T07:04:25.080Z,9.23
2019-05-14T07:06:58.844Z,9.40
2019-05-14T07:09:28.903Z,8.93
2019-05-14T07:11:59.420Z,8.73
2019-05-14T07:14:29.702Z,9.43
2019-05-14T07:17:00.856Z,9.58
2019-05-14T07:19:32.181Z,10.05
2019-05-14T07:22:02.534Z,9.38
2019-05-14T07:24:32.797Z,8.95
2019-05-14T07:27:03.104Z,9.50
2019-05-14T07:29:33.368Z,9.95
2019-05-14T07:32:03.665Z,10.03
2019-05-14T07:34:34.656Z,9.83
2019-05-14T07:37:04.968Z,10.32
2019-05-14T07:39:35.242Z,10.13
2019-05-14T07:42:06.102Z,9.83
2019-05-14T07:44:38.865Z,9.93
2019-05-14T07:47:08.487Z,8.95
2019-05-14T07:49:39.400Z,9.35
2019-05-14T07:52:09.648Z,8.73
2019-05-14T07:54:39.930Z,8.65
2019-05-14T07:57:12.151Z,9.13
2019-05-14T07:59:42.607Z,7.60
2019-05-14T08:02:13.034Z,6.90
2019-05-14T08:04:44.359Z,7.12
2019-05-14T08:07:14.650Z,9.00
2019-05-14T08:09:44.877Z,7.30
2019-05-14T08:12:17.102Z,7.10
2019-05-14T08:15:08.929Z,7.42
2019-05-14T08:17:19.166Z,6.87
2019-05-14T08:19:49.409Z,6.70
2019-05-14T08:22:19.692Z,7.53
2019-05-14T08:24:50.232Z,7.72
2019-05-14T08:27:20.728Z,8.18
2019-05-14T08:29:50.997Z,7.62
2019-05-14T08:32:21.290Z,8.70
2019-05-14T08:34:51.556Z,8.95
2019-05-14T08:37:21.845Z,8.43
2019-05-14T08:39:52.107Z,9.73
2019-05-14T08:42:22.344Z,9.25
2019-05-14T08:44:52.590Z,9.23
2019-05-14T08:47:22.844Z,9.25
2019-05-14T08:49:53.100Z,8.85
2019-05-14T08:52:23.320Z,8.38
2019-05-14T08:55:05.631Z,7.45
2019-05-14T08:57:25.458Z,8.30
2019-05-14T08:59:55.873Z,8.43
2019-05-14T09:02:28.495Z,7.47
2019-05-14T09:05:03.848Z,8.33
2019-05-14T09:07:29.984Z,7.90
2019-05-14T09:10:00.297Z,7.87
2019-05-14T09:12:30.587Z,7.85
2019-05-14T09:15:00.844Z,8.23
2019-05-14T09:17:31.150Z,7.90
2019-05-14T09:20:06.774Z,8.13
2019-05-14T09:22:33.323Z,7.65
2019-05-14T09:25:04.589Z,7.87
2019-05-14T09:27:34.886Z,6.95
2019-05-14T09:30:09.965Z,6.65
2019-05-14T09:32:40.273Z,6.67
2019-05-14T09:35:10.651Z,5.60
2019-05-14T09:37:40.917Z,5.55
2019-05-14T09:40:11.177Z,5.92
2019-05-14T09:42:41.455Z,5.72
2019-05-14T09:45:12.119Z,5.50
2019-05-14T09:47:42.407Z,5.37
2019-05-14T09:50:20.168Z,5.30
2019-05-14T09:52:44.810Z,5.17
2019-05-14T09:55:15.305Z,5.17
2019-05-14T09:57:45.577Z,5.70
2019-05-14T10:00:18.162Z,6.70
2019-05-14T10:02:49.095Z,6.70
2019-05-14T10:05:19.864Z,5.20
2019-05-14T10:07:50.163Z,5.53
2019-05-14T10:10:20.372Z,4.90
2019-05-14T10:12:56.425Z,4.90
2019-05-14T10:15:23.465Z,4.92
2019-05-14T10:17:53.748Z,4.95
2019-05-14T10:20:36.404Z,6.12
2019-05-14T10:22:55.878Z,5.28
2019-05-14T10:25:26.040Z,4.75
2019-05-14T10:27:58.942Z,5.47
2019-05-14T10:30:28.667Z,5.25
2019-05-14T10:33:09.575Z,4.97
2019-05-14T10:35:31.006Z,5.00
2019-05-14T10:38:01.230Z,4.95
2019-05-14T10:40:31.477Z,5.10
2019-05-14T10:43:01.774Z,4.37
2019-05-14T10:45:32.134Z,4.90
2019-05-14T10:48:02.420Z,5.20
2019-05-14T10:50:32.675Z,5.33
2019-05-14T10:53:03.001Z,5.92
2019-05-14T10:55:33.259Z,5.12
2019-05-14T10:58:03.551Z,5.08
2019-05-14T11:00:33.860Z,5.12
2019-05-14T11:03:04.045Z,5.05
2019-05-14T11:05:34.317Z,5.60
2019-05-14T11:08:04.599Z,4.75
2019-05-14T11:10:34.880Z,4.83
2019-05-14T11:13:05.079Z,5.95
2019-05-14T11:15:35.351Z,5.12
2019-05-14T11:18:05.636Z,5.25
2019-05-14T11:20:41.718Z,5.22
2019-05-14T11:23:09.505Z,5.22
2019-05-14T11:25:39.824Z,6.00
2019-05-14T11:28:10.093Z,5.95
2019-05-14T11:30:40.319Z,5.85
2019-05-14T11:33:10.542Z,6.05
2019-05-14T11:35:40.806Z,6.67
2019-05-14T11:38:27.905Z,6.83
2019-05-14T11:40:42.972Z,6.33
2019-05-14T11:43:13.192Z,6.20
2019-05-14T11:45:44.372Z,6.08
2019-05-14T11:48:14.734Z,6.22
2019-05-14T11:50:44.992Z,6.12
2019-05-14T11:53:15.308Z,5.35
2019-05-14T11:55:45.574Z,4.35
2019-05-14T11:58:19.862Z,4.17
2019-05-14T12:00:48.534Z,4.47
2019-05-14T12:03:19.784Z,4.87
2019-05-14T12:05:50.309Z,5.37
2019-05-14T12:08:20.594Z,6.83
2019-05-14T12:10:50.773Z,5.75
2019-05-14T12:13:20.993Z,6.33
2019-05-14T12:15:52.195Z,6.42
2019-05-14T12:18:22.608Z,6.80
2019-05-14T12:20:52.913Z,7.03
2019-05-14T12:23:23.163Z,8.25
2019-05-14T12:25:53.456Z,7.87
2019-05-14T12:28:23.717Z,7.55
2019-05-14T12:30:54.025Z,8.05
2019-05-14T12:33:24.309Z,9.20
2019-05-14T12:35:54.609Z,7.47
2019-05-14T12:38:24.879Z,7.25
2019-05-14T12:40:55.203Z,6.10
2019-05-14T12:43:27.982Z,6.83
2019-05-14T12:45:59.300Z,7.05
2019-05-14T12:48:29.947Z,5.90
2019-05-14T12:51:00.290Z,7.45
2019-05-14T12:53:30.553Z,6.00
2019-05-14T12:56:00.763Z,5.80
2019-05-14T12:58:32.111Z,7.00
2019-05-14T13:01:02.410Z,6.30
2019-05-14T13:03:32.664Z,5.83
2019-05-14T13:06:02.962Z,6.30
2019-05-14T13:08:33.200Z,5.47
2019-05-14T13:11:03.458Z,5.55
2019-05-14T13:13:33.752Z,6.87
2019-05-14T13:16:04.928Z,6.60
2019-05-14T13:18:35.242Z,5.28
2019-05-14T13:21:05.511Z,4.78
2019-05-14T13:23:38.115Z,5.17
2019-05-14T13:26:10.506Z,4.67
2019-05-14T13:28:40.258Z,4.53
2019-05-14T13:31:10.823Z,4.90
2019-05-14T13:33:41.101Z,4.87
2019-05-14T13:36:11.419Z,4.40
2019-05-14T13:38:41.712Z,4.40
2019-05-14T13:41:11.957Z,3.50
2019-05-14T13:43:42.253Z,4.05
2019-05-14T13:46:15.050Z,3.95
2019-05-14T13:48:44.435Z,4.45
2019-05-14T13:51:14.655Z,4.45
2019-05-14T13:53:44.932Z,3.80
2019-05-14T13:56:15.203Z,4.47
2019-05-14T13:58:48.965Z,4.45
2019-05-14T14:01:19.337Z,4.35
2019-05-14T14:04:03.597Z,3.87
2019-05-14T14:06:23.080Z,4.60
2019-05-14T14:08:53.336Z,4.00
2019-05-14T14:11:23.593Z,4.70
2019-05-14T14:13:53.922Z,4.53
2019-05-14T14:16:24.265Z,4.58
2019-05-14T14:18:54.554Z,5.67
2019-05-14T14:21:24.836Z,4.70
2019-05-14T14:23:55.026Z,5.55
2019-05-14T14:26:29.039Z,4.85
2019-05-14T14:28:59.695Z,4.40
2019-05-14T14:31:30.055Z,4.40
2019-05-14T14:34:00.321Z,3.83
2019-05-14T14:36:30.565Z,4.10
2019-05-14T14:39:00.823Z,3.80
2019-05-14T14:41:32.564Z,3.87
2019-05-14T14:44:03.047Z,5.90
2019-05-14T14:46:33.379Z,3.95
2019-05-14T14:49:03.638Z,3.87
2019-05-14T14:51:40.493Z,4.30
2019-05-14T14:54:11.834Z,4.35
2019-05-14T14:56:38.352Z,4.67
2019-05-14T14:59:09.554Z,4.10
2019-05-14T15:01:40.578Z,5.08
2019-05-14T15:04:13.634Z,4.03
2019-05-14T15:06:43.286Z,4.45
2019-05-14T15:09:13.600Z,5.40
2019-05-14T15:11:43.900Z,3.80
2019-05-14T15:14:14.148Z,4.35
2019-05-14T15:16:44.385Z,4.72
2019-05-14T15:19:20.857Z,4.58
2019-05-14T15:21:52.144Z,3.67
2019-05-14T15:24:24.249Z,3.77
2019-05-14T15:26:54.631Z,4.35
2019-05-14T15:29:24.870Z,3.92
2019-05-14T15:31:55.094Z,4.55
2019-05-14T15:34:25.286Z,4.47
2019-05-14T15:36:55.589Z,4.87
2019-05-14T15:39:25.839Z,4.65
2019-05-14T15:42:04.025Z,4.40
2019-05-14T15:44:46.398Z,4.42
2019-05-14T15:47:00.563Z,4.80
2019-05-14T15:49:30.816Z,4.72
2019-05-14T15:52:01.105Z,4.15
2019-05-14T15:54:42.971Z,4.00
2019-05-14T15:57:03.268Z,3.87
2019-05-14T15:59:33.537Z,3.95
2019-05-14T16:02:03.760Z,4.28
2019-05-14T16:04:34.303Z,4.30
2019-05-14T16:07:04.594Z,3.98
2019-05-14T16:09:35.085Z,4.33
2019-05-14T16:12:06.442Z,3.85
2019-05-14T16:14:38.712Z,4.17
2019-05-14T16:17:11.543Z,4.55
2019-05-14T16:19:40.394Z,3.95
2019-05-14T16:22:10.676Z,4.28
2019-05-14T16:24:55.755Z,4.08
2019-05-14T16:27:12.789Z,4.47
2019-05-14T16:29:45.785Z,4.80
2019-05-14T16:32:14.979Z,4.28
2019-05-14T16:34:45.204Z,4.08
2019-05-14T16:37:15.492Z,3.98
2019-05-14T16:39:48.906Z,3.90
2019-05-14T16:42:20.637Z,3.87
2019-05-14T16:44:50.941Z,4.15
2019-05-14T16:47:21.193Z,3.90
2019-05-14T16:49:51.751Z,4.12
2019-05-14T16:52:21.952Z,4.53
2019-05-14T16:55:01.820Z,4.65
2019-05-14T16:57:24.346Z,4.90
2019-05-14T16:59:55.187Z,4.62
2019-05-14T17:02:25.351Z,4.62
2019-05-14T17:04:55.589Z,4.80
2019-05-14T17:07:25.948Z,4.20
2019-05-14T17:09:58.103Z,5.20
2019-05-14T17:12:34.451Z,5.83
2019-05-14T17:15:02.734Z,5.10
2019-05-14T17:17:33.026Z,4.47
2019-05-14T17:20:03.449Z,5.45
2019-05-14T17:22:34.015Z,5.03
2019-05-14T17:25:04.866Z,5.20
2019-05-14T17:27:35.174Z,4.90
2019-05-14T17:30:08.763Z,4.70
2019-05-14T17:32:40.424Z,4.92
2019-05-14T17:35:10.898Z,4.90
2019-05-14T17:37:41.201Z,5.08
2019-05-14T17:40:12.051Z,4.70
2019-05-14T17:42:42.354Z,4.70
2019-05-14T17:45:12.601Z,4.72
2019-05-14T17:47:43.541Z,4.83
2019-05-14T17:50:14.872Z,5.83
2019-05-14T17:52:45.681Z,5.12
2019-05-14T17:55:18.621Z,4.65
2019-05-14T17:57:56.699Z,4.53
2019-05-14T18:00:20.268Z,4.22
2019-05-14T18:02:50.575Z,5.25
2019-05-14T18:05:20.977Z,4.65
2019-05-14T18:07:51.296Z,4.58
2019-05-14T18:10:21.610Z,4.50
2019-05-14T18:12:51.922Z,4.78
2019-05-14T18:15:23.726Z,4.65
2019-05-14T18:17:53.998Z,4.30
2019-05-14T18:20:24.297Z,3.95
2019-05-14T18:22:54.887Z,4.03
2019-05-14T18:25:25.181Z,4.40
2019-05-14T18:27:55.717Z,5.65
2019-05-14T18:30:28.685Z,4.67
2019-05-14T18:32:58.386Z,5.12
2019-05-14T18:35:29.627Z,4.30
2019-05-14T18:38:00.137Z,4.08
2019-05-14T18:40:30.357Z,4.42
2019-05-14T18:43:01.825Z,3.98
2019-05-14T18:45:32.098Z,4.40
2019-05-14T18:48:03.910Z,4.00
2019-05-14T18:50:34.644Z,4.62
2019-05-14T18:53:09.102Z,4.97
2019-05-14T18:55:40.495Z,4.47
2019-05-14T18:58:10.874Z,4.35
2019-05-14T19:00:41.148Z,4.33
2019-05-14T19:03:11.477Z,4.40
2019-05-14T19:05:48.199Z,4.85
2019-05-14T19:08:18.010Z,4.42
2019-05-14T19:10:49.589Z,4.67
2019-05-14T19:13:20.028Z,4.12
2019-05-14T19:15:50.618Z,4.87
2019-05-14T19:18:20.888Z,4.78
2019-05-14T19:20:51.277Z,4.15
2019-05-14T19:23:21.650Z,4.10
2019-05-14T19:25:51.960Z,4.47
2019-05-14T19:28:22.643Z,4.85
2019-05-14T19:30:52.877Z,5.67
2019-05-14T19:33:23.060Z,5.85
2019-05-14T19:35:53.822Z,5.58
2019-05-14T19:38:25.209Z,6.40
2019-05-14T19:40:55.602Z,6.45
2019-05-14T19:43:25.911Z,6.15
2019-05-14T19:45:56.197Z,6.15
2019-05-14T19:48:29.849Z,5.85
2019-05-14T19:50:58.542Z,4.87
2019-05-14T19:53:28.839Z,4.20
2019-05-14T19:55:59.429Z,4.85
2019-05-14T19:58:29.843Z,5.00
2019-05-14T20:01:00.185Z,5.47
2019-05-14T20:03:30.525Z,5.08
2019-05-14T20:06:00.829Z,4.53
2019-05-14T20:08:31.168Z,5.00
2019-05-14T20:11:01.487Z,5.28
2019-05-14T20:13:31.815Z,5.28
2019-05-14T20:16:02.120Z,4.85
2019-05-14T20:18:32.504Z,5.22
2019-05-14T20:21:05.808Z,4.97
2019-05-14T20:23:35.817Z,5.95
2019-05-14T20:26:08.132Z,5.03
2019-05-14T20:28:39.297Z,5.42
2019-05-14T20:31:11.652Z,5.30
2019-05-14T20:33:41.939Z,5.62
2019-05-14T20:36:13.839Z,5.05
2019-05-14T20:38:44.118Z,5.42
2019-05-14T20:41:14.450Z,5.00
2019-05-14T20:43:44.718Z,5.20
2019-05-14T20:46:16.721Z,5.05
2019-05-14T20:48:46.972Z,4.80
2019-05-14T20:51:18.598Z,5.70
2019-05-14T20:53:49.061Z,5.62
2019-05-14T20:56:19.365Z,5.90
2019-05-14T20:58:54.996Z,6.12
2019-05-14T21:03:59.225Z,5.65
2019-05-14T21:06:35.566Z,5.47
2019-05-14T21:09:06.786Z,6.50
2019-05-14T21:11:38.515Z,6.12
2019-05-14T21:14:09.083Z,5.65
2019-05-14T21:16:59.537Z,6.20
2019-05-14T21:19:29.923Z,5.53
2019-05-14T21:22:01.146Z,5.53
2019-05-14T21:24:33.217Z,6.12
2019-05-14T21:29:41.601Z,6.35
2019-05-14T21:32:11.947Z,5.12
2019-05-14T21:35:04.727Z,5.75
2019-05-14T21:37:39.041Z,5.08
2019-05-14T21:40:09.155Z,5.03
2019-05-14T21:42:41.507Z,5.20
2019-05-14T21:45:28.586Z,5.12
2019-05-14T21:47:59.551Z,5.55
2019-05-14T21:50:31.841Z,5.47
2019-05-14T21:53:02.164Z,6.08
2019-05-14T21:55:32.468Z,6.05
2019-05-14T21:58:05.818Z,5.53
2019-05-14T22:00:43.613Z,5.35
2019-05-14T22:03:14.189Z,4.78
2019-05-14T22:05:48.248Z,5.20
2019-05-14T22:08:18.014Z,5.20
2019-05-14T22:10:54.604Z,5.05
2019-05-14T22:13:28.369Z,5.12
2019-05-14T22:16:08.868Z,4.95
2019-05-14T22:18:39.253Z,5.28
2019-05-14T22:21:09.645Z,5.10
2019-05-14T22:23:41.050Z,5.08
2019-05-14T22:26:12.565Z,5.55
2019-05-14T22:28:42.833Z,5.45
2019-05-14T22:31:16.084Z,5.72
2019-05-14T22:34:18.390Z,5.62
2019-05-14T22:38:52.982Z,5.35
2019-05-14T22:41:24.841Z,5.47
2019-05-14T22:43:59.934Z,5.83
2019-05-14T22:49:19.145Z,4.78
2019-05-14T22:51:49.809Z,5.03
2019-05-14T22:54:20.811Z,5.80
2019-05-14T22:56:51.381Z,4.92
2019-05-14T22:59:21.774Z,5.03
2019-05-14T23:01:52.060Z,5.28
2019-05-14T23:04:22.378Z,5.47
2019-05-14T23:06:53.771Z,5.12
2019-05-14T23:09:24.077Z,5.30
2019-05-14T23:11:54.340Z,5.45
2019-05-14T23:14:24.645Z,5.00
2019-05-14T23:16:54.953Z,4.83
2019-05-14T23:19:25.264Z,4.58
2019-05-14T23:21:58.089Z,5.40
2019-05-14T23:24:28.660Z,5.50
2019-05-14T23:26:59.051Z,5.22
2019-05-14T23:29:29.364Z,5.58
2019-05-14T23:31:59.735Z,5.78
2019-05-14T23:34:30.045Z,5.60
2019-05-14T23:37:00.814Z,5.75
2019-05-14T23:39:31.263Z,5.37
2019-05-14T23:42:01.540Z,5.83
2019-05-14T23:44:31.857Z,6.25
2019-05-14T23:47:02.145Z,6.30
2019-05-14T23:49:32.447Z,6.35
2019-05-14T23:52:02.726Z,5.95
2019-05-14T23:54:33.040Z,5.33
2019-05-14T23:57:03.316Z,6.08
2019-05-14T23:59:33.616Z,6.12
